KGZS

Details ICAO KGZS
Name ABERNATHY FLD
Region United States
Timezone America/Chicago (UTC-5.0)
Plans Departing 1
Arriving 0
Stats Elevation 685 ft / 209 m (AMSL)
Location 35.153707° -87.056815°
Runways 1
Magnetic Variation 3.413° W
Sunrise 2017-07-25 10:53:27 UTC / 2017-07-25 05:53:27 Local
Sunset 2017-07-26 00:58:20 UTC / 2017-07-25 19:58:20 Local
Advertisement - Login to hide

Runways

ID Width Length Bearing (true) Bearing (mag) Surface Threshold Offset Overrun Length
16 75 ft / 23 m 5,007 ft / 1,526 m 153.10° 156.51° Asphalt 0 ft / 0 m 0 ft / 0 m
34 75 ft / 23 m 5,007 ft / 1,526 m 333.10° 336.51° Asphalt 0 ft / 0 m 0 ft / 0 m

Map

Weather


0- 5 10 15 20 25 30 35+ Temperature / ° C

Clouds and Precipitation
Forecast for 2017-07-25 18:00 UTC. Updated an hour ago

Ground ~20,000 ft ~40,000 ft Winds

METAR

KGZS 251615Z AUTO 00000KT 10SM CLR 31/24 A3010 RMK A01

TAF

Not found

Frequencies

Recorded 118.27 MHz AWOS 3
Unicom 122.80 MHz CTAF/UNICOM
Warning: Do not use this data for real-world aviation or navigation. No guarantee of current accuracy is given.